Lycan, Colorado
Current Conditions -  °F | °C
As of 3:53 AM on Sunday 26 Oct 2014 (Local Time) from KLAA Reporting Station
Clear Clear  
Wind Chill: 39°   Ceiling: Unl
Heat Index: 43°   Visibility: 10mi
Dew Point: 34°   Wind: 7mph
Humidity: 71%   Direction: 250°WSW
Pressure: 29.83"   Gusts: NA
Location:  37.5696°N, 102.293°W
Report Text: KLAA 260953Z AUTO 25006KT 10SM CLR 06/01 A2983 RMK AO2 SLP063 T00610011
Loading
Personal Weather Stations






























Interactive Weather Map
Tropical Storm Tracking
New forecast layout! Learn more

10-Day Weather Forecast

Advertisements
Track Severe Weather on mobile